Change Date:Time:

Metar of : 9/16/2021 1100UTC
46%42%44%43%45%48%44%36%38%10%
 Station  Wind Direction  Speed  Visibility Clouds Temperature Pressure Humidity
OPAK 00000KT 6000 NSC 37/23 Q0995 44%
ATTOCK --- 00KT 6000m Clear 37oC 995hp 44%
OPBR 27004KT 9999 FEW040 38/25 47%
BAHAWALNAGAR W 04KT 9999m Partly Cloudy 38oC 47%
OPBW 23010KT 4000 HZ FEW040 38/24 Q1000 45%
BAHAWALPUR A/P SW 10KT 4000m Partly Cloudy 38oC 1000hp 45%
OPBK 00000KT CAVOK 33/20 RH46%
BALAKOT --- 00KT Clear 33oC 46%
OPBN 09008 KT CAVOK 37/23 RH 42%
BANNU Clear 37oC 42%
OPBKR 13002KT CAVOK 41/24 39%
BHAKKAR SE 02KT Clear 41oC 39%
OPCK 31002KT 9999 FEW035 35/19 39%
CHAKWAL NW 02KT 9999m Partly Cloudy 35oC 39%
OPCH 18006KT CAVOK 35/14 Q1007 29%
CHITRAL S 06KT Clear 35oC 1007hp 29%
OPDG 13004KT 6000 NSC 37/25 Q1002 50%
D G KHAN SE 04KT 6000m Clear 37oC 1002hp 50%
OPDI 00000KT CAVOK 39/23 Q0999 41%
D I Khan A/P --- 00KT Clear 39oC 999hp 41%
OPDIR 23002KT 9999 FEW035 32/18 43%
DIR SW 02KT 9999m Partly Cloudy 32oC 43%
OPDH 22514KT CAVOK 34/09 22%
DROSH SW 14KT Clear 34oC 22%
OPFA 23002KT 6000 SCT040 38/21 Q1001 NOSIG 38%
FAISALABAD SW 02KT 6000m Partly Cloudy 38oC 1001hp 38%
OPGP 31002KT CAVOK 35/20 43%
GARHI DOPATTA NW 02KT Clear 35oC 43%
OPGD 161100Z 23012KT 7000 NSC 37/22 Q1002 RH42%
GAWADAR SW 12KT 7000m Clear 37oC 1002hp 42%
OPGT 161100Z 00000KT 8000 FEW040 36/10 Q1005 24% A.V CLEAR
GILGIT --- 00KT 8000m Partly Cloudy 36oC 1005hp 24%
OPGW 27006KT CAVOK 34/27 65%
GUJRANWALA W 06KT Clear 34oC 65%
OPUG 00000KT 7000 SCT100 37/26 55%
GUJRAT --- 00KT 7000m Partly Cloudy 37oC 55%
OPKD 161100Z 09006KT 6000 SCT040 37/23 Q,1000 RH44%
HYDERABAD E 06KT 6000m Partly Cloudy 37oC 44%
OPIS 23004KT 7000 FEW040 35/20 Q1002 NOSIG RH 41%
ISLAMABAD A/P SW 04KT 7000m Partly Cloudy 35oC 1002hp 41%
OPHQ 00000KT 5000 HZ NSC 36/22 Q0998 RH 46%
ISLAMABAD CITY --- 00KT 5000m Haze 36oC 998hp 46%
OPJG 18002KT CAVOK 38/22 Q1000 41%
JHANG S 02KT Clear 38oC 1000hp 41%
OPJM 00000KT 5000 FU NSC 36/27 RH 63%
JHELUM --- 00KT 5000m Smoke Haze 36oC 63%
OPJBD 13002KT 9999 FEW040 39/26 48%
JOHARABAD SE 02KT 9999m Partly Cloudy 39oC 48%
OPKK 13502KT 9999 SCT035 29/19 RH 53%
KAKUL SE 02KT 9999m Partly Cloudy 29oC 53%
OPKC 161100Z 09006KT 6000 SCT030 39/24 Q0999 RH43%
KARACHI E 06KT 6000m Partly Cloudy 39oC 999hp 43%
OPKRL 18002KT 5000 HZ NSC 39/24 44%
KAROR (LAYYAH) S 02KT 5000m Haze 39oC 44%
OPKS 27002KT 6000 SCT100 36/25 55%
KASUR W 02KT 6000m Partly Cloudy 36oC 55%
OPKW 00000KT 5000 HZ SCT040 38/23 Q1000 43%
KHANEWAL --- 00KT 5000m Partly Cloudy 38oC 1000hp 43%
OPKP 27004KT 4000 HZ FEW040 40/23 40%
KHANPUR W 04KT 4000m Partly Cloudy 40oC 40%
OPKAD 23004KT 8000 NSC 39/25 Q1001 RH45%
KOT ADDU SW 04KT 8000m Clear 39oC 1001hp 45%
OPKL 23002KT 9999 SCT040 35/23 51%
KOTLI SW 02KT 9999m Partly Cloudy 35oC 51%
OPLA 29010KT 5000 HZ SCT040 36/22 Q1001 A2957 NOSIG 45%
LAHORE A/P WNW 10KT 5000m Partly Cloudy 36oC 1001hp 45%
OPLRK 161100 13004KT 6000 NSC 39/25 Q1002 RH48%
LARKANA SE 04KT 6000m Clear 39oC 1002hp 48%
OPTMG 18002KT CAVOK 35/19 39%
LOWER DIR S 02KT Clear 35oC 39%
OPMJB 36004KT 9999 SCT040 21/14 R.H 64%
MALAM JABBA N 04KT 9999m Partly Cloudy 21oC 64%
OPMB 27002KT CAVOK 37/27 Q1000 60%
MANDI BAHAUDDIN W 02KT Clear 37oC 1000hp 60%
OPMA 23006KT 9999 FEW040 36/25 Q1003 53%
MANGLA SW 06KT 9999m Partly Cloudy 36oC 1003hp 53%
OPMIT 161100 09004KT 6000 SCT030 36/24 Q0999 50%
MITHI E 04KT 6000m Partly Cloudy 36oC 999hp 50%
OPMT 23014KT 5000 DRDU NSC 39/22 Q1000 TEMPO U 39%
MULTAN A/P SW 14KT 5000m Dust Haze 39oC 1000hp 39%
OPME 13002KT 9999 SCT040 22/19 84%
MURREE SE 02KT 9999m Partly Cloudy 22oC 84%
OPMF 31004KT 8000 FEW033 34/20 43%
MUZAFFARABAD A/P NW 04KT 8000m Partly Cloudy 34oC 43%
OPNL 09002KT 4000 FU SCT100 35/26 Q1001 62%
NAROWAL E 02KT 4000m Partly Cloudy 35oC 1001hp 62%
OPNH 161100 04504KT 6000 FEW035 39/24 Q1000 RH44% NOSIG
NAWABSHAH NE 04KT 6000m Partly Cloudy 39oC 1000hp 44%
OPNPT 00000KT 8000 NSC 41/21 31%
NOOR PUR THAL --- 00KT 8000m Clear 41oC 31%
OPOK 00000KT 6000 FEW040 37/24 Q1000 49%
OKARA --- 00KT 6000m Partly Cloudy 37oC 1000hp 49%
OPPS (CITY) 00000 4000 FU NSC 38/23 Q0997 45%
PESHAWAR AP 4000m Smoke Haze 38oC 997hp 45%
OPRK 27004KT 6000 NSC 40/22 Q1000 RH36%
R Y KHAN W 04KT 6000m Clear 40oC 1000hp 36%
OPRT 23002KT 9999 SCT040 25/13 Q1022 47%
RAWALAKOT SW 02KT 9999m Partly Cloudy 25oC 1022hp 47%
OPSW 36004KT 4000 FU SCT040 36/25 Q1001 53%
SAHIWAL N 04KT 4000m Partly Cloudy 36oC 1001hp 53%
OPSS 00000KT CAVOK 33/21 51%
SAIDU SHARIF --- 00KT Clear 33oC 51%
OPSG 23002KT 6000 FEW100 38/25 RH 47%
SARGODHA CITY SW 02KT 6000m Partly Cloudy 38oC 47%
OPST 23006KT 4000 FU FEW040 35/26 Q1001 NOSIG 60%
SIALKOT A/P SW 06KT 4000m Partly Cloudy 35oC 1001hp 60%
OPSKT 31004KT 6000 FEW040 SCT110 35/25 57%
SIALKOT CITY NW 04KT 6000m Partly Cloudy 35oC 57%
OPSD 161100Z 00000KT 9999 FEW040 27/07 Q1014 29% AV CLEAR
SKARDU --- 00KT 9999m Partly Cloudy 27oC 1014hp 29%
OPSK 161100Z 27010KT 4000 HZ FEW040 40/23 Q0998 INC29.49 RH38% NOSIG
SUKKUR W 10KT 4000m Partly Cloudy 40oC 998hp 38%
OPTS 27006KT 6000 SCT040 38/24 45%
T T SINGH W 06KT 6000m Partly Cloudy 38oC 45%
OPTKB (41534) 1100Z 00000KT CAVOK 37/24 RH 49%
TAKHT BHAI --- 00KT Clear 37oC 49%
OPTU 161100Z 27008KT 6000 NSC 44/05 Q0998 RH10%
TURBAT W 08KT 6000m Clear 44oC 998hp 10%